createdAt,value
2019-04-06T00:05:55.518Z,97.90
2019-04-06T00:12:00.136Z,97.93
2019-04-06T00:18:04.731Z,97.82
2019-04-06T00:24:09.329Z,97.50
2019-04-06T00:30:15.110Z,97.74
2019-04-06T00:36:19.849Z,97.55
2019-04-06T00:42:24.433Z,97.53
2019-04-06T00:48:29.043Z,97.77
2019-04-06T00:54:33.654Z,98.08
2019-04-06T01:00:38.421Z,97.86
2019-04-06T01:06:43.083Z,97.76
2019-04-06T01:12:47.832Z,97.81
2019-04-06T01:18:52.516Z,97.43
2019-04-06T01:24:57.129Z,97.37
2019-04-06T01:31:01.733Z,95.92
2019-04-06T01:37:06.631Z,94.65
2019-04-06T01:43:11.283Z,95.96
2019-04-06T01:49:15.869Z,95.57
2019-04-06T01:55:20.467Z,96.10
2019-04-06T02:01:42.809Z,96.14
2019-04-06T02:07:48.175Z,97.93
2019-04-06T02:13:52.811Z,98.18
2019-04-06T02:19:57.421Z,98.06
2019-04-06T02:26:02.031Z,98.27
2019-04-06T02:32:06.378Z,98.07
2019-04-06T02:38:19.492Z,98.17
2019-04-06T02:44:24.151Z,97.43
2019-04-06T02:50:28.815Z,98.20
2019-04-06T02:56:45.040Z,96.15
2019-04-06T03:02:39.848Z,96.26
2019-04-06T03:08:44.434Z,96.12
2019-04-06T03:14:49.028Z,96.59
2019-04-06T03:20:53.767Z,97.17
2019-04-06T03:27:02.653Z,96.86
2019-04-06T03:33:06.281Z,96.41
2019-04-06T03:39:10.950Z,96.98
2019-04-06T03:45:16.016Z,97.24
2019-04-06T03:51:20.716Z,98.04
2019-04-06T03:57:25.354Z,99.47
2019-04-06T04:03:29.905Z,100.00
2019-04-06T04:09:34.453Z,100.00
2019-04-06T04:15:39.296Z,99.59
2019-04-06T04:21:43.995Z,98.70
2019-04-06T04:27:48.581Z,98.05
2019-04-06T04:33:53.249Z,97.55
2019-04-06T04:39:57.898Z,98.05
2019-04-06T04:46:02.441Z,98.58
2019-04-06T04:52:07.060Z,97.51
2019-04-06T04:58:11.631Z,97.17
2019-04-06T05:04:16.270Z,97.02
2019-04-06T05:10:20.832Z,97.94
2019-04-06T05:16:25.614Z,99.28
2019-04-06T05:22:30.165Z,99.63
2019-04-06T05:28:34.903Z,99.74
2019-04-06T05:34:39.441Z,99.87
2019-04-06T05:40:43.994Z,97.52
2019-04-06T05:46:48.626Z,98.68
2019-04-06T05:52:53.244Z,98.82
2019-04-06T05:58:57.797Z,98.34
2019-04-06T06:05:02.381Z,96.93
2019-04-06T06:11:07.013Z,96.96
2019-04-06T06:17:11.587Z,96.80
2019-04-06T06:23:16.113Z,96.78
2019-04-06T06:29:20.733Z,95.44
2019-04-06T06:35:25.371Z,94.58
2019-04-06T06:41:29.995Z,92.89
2019-04-06T06:47:34.531Z,92.60
2019-04-06T06:53:39.271Z,91.81
2019-04-06T06:59:43.833Z,90.74
2019-04-06T07:05:48.668Z,91.47
2019-04-06T07:11:53.355Z,91.10
2019-04-06T07:17:57.907Z,90.57
2019-04-06T07:24:02.453Z,91.01
2019-04-06T07:30:08.540Z,89.08
2019-04-06T07:36:13.157Z,89.00
2019-04-06T07:42:17.710Z,87.65
2019-04-06T07:48:22.342Z,87.11
2019-04-06T07:54:27.021Z,86.63
2019-04-06T08:00:31.652Z,86.19
2019-04-06T08:06:36.197Z,86.23
2019-04-06T08:12:40.766Z,86.18
2019-04-06T08:18:45.315Z,85.29
2019-04-06T08:24:49.861Z,84.59
2019-04-06T08:30:54.569Z,83.19
2019-04-06T08:36:59.181Z,83.91
2019-04-06T08:43:03.735Z,81.42
2019-04-06T08:49:08.380Z,78.88
2019-04-06T08:55:13.335Z,78.02
2019-04-06T09:01:17.982Z,78.21
2019-04-06T09:07:22.547Z,78.14
2019-04-06T09:13:28.613Z,79.71
2019-04-06T09:19:33.187Z,79.43
2019-04-06T09:25:37.743Z,77.35
2019-04-06T09:31:42.310Z,77.37
2019-04-06T09:37:46.898Z,79.27
2019-04-06T09:43:51.473Z,76.32
2019-04-06T09:50:09.472Z,74.03
2019-04-06T09:56:13.812Z,72.68
2019-04-06T10:02:38.216Z,67.94
2019-04-06T10:08:56.695Z,58.02
2019-04-06T10:15:17.755Z,53.21
2019-04-06T10:21:37.314Z,45.07
2019-04-06T10:27:49.580Z,40.94
2019-04-06T10:33:58.599Z,38.49
2019-04-06T10:40:05.232Z,36.23
2019-04-06T10:46:11.605Z,33.43
2019-04-06T10:52:24.082Z,31.93
2019-04-06T10:58:30.301Z,31.61
2019-04-06T11:04:45.027Z,30.50
2019-04-06T11:11:07.094Z,29.47
2019-04-06T11:17:14.246Z,29.59
2019-04-06T11:23:23.225Z,29.51
2019-04-06T11:29:35.629Z,28.44
2019-04-06T11:35:45.915Z,26.38
2019-04-06T11:42:06.923Z,27.46
2019-04-06T11:48:23.621Z,26.58
2019-04-06T11:54:45.839Z,27.46
2019-04-06T12:00:52.946Z,27.60
2019-04-06T12:07:14.271Z,26.37
2019-04-06T12:13:23.013Z,25.97
2019-04-06T12:19:45.422Z,24.67
2019-04-06T12:26:00.779Z,23.35
2019-04-06T12:32:12.755Z,23.36
2019-04-06T12:38:24.515Z,23.25
2019-04-06T12:44:30.740Z,21.71
2019-04-06T12:50:53.174Z,22.92
2019-04-06T12:57:09.440Z,24.35
2019-04-06T13:03:14.016Z,21.39
2019-04-06T13:09:36.700Z,22.14
2019-04-06T13:15:51.887Z,22.90
2019-04-06T13:21:58.186Z,28.18
2019-04-06T13:28:04.402Z,27.55
2019-04-06T13:34:26.411Z,26.05
2019-04-06T13:40:51.341Z,24.41
2019-04-06T13:46:56.921Z,24.88
2019-04-06T13:53:01.812Z,26.76
2019-04-06T13:59:11.645Z,26.70
2019-04-06T14:05:23.817Z,28.38
2019-04-06T14:11:36.035Z,29.93
2019-04-06T14:17:43.478Z,31.13
2019-04-06T14:24:05.268Z,30.75
2019-04-06T14:30:25.958Z,30.34
2019-04-06T14:36:50.065Z,29.82
2019-04-06T14:43:05.021Z,27.68
2019-04-06T14:49:32.004Z,26.47
2019-04-06T14:55:37.249Z,25.10
2019-04-06T15:01:57.724Z,25.90
2019-04-06T15:08:01.675Z,28.97
2019-04-06T15:14:19.974Z,28.46
2019-04-06T15:20:42.008Z,25.88
2019-04-06T15:26:48.493Z,26.20
2019-04-06T15:33:03.678Z,24.52
2019-04-06T15:39:09.048Z,24.48
2019-04-06T15:45:19.377Z,23.95
2019-04-06T15:51:23.734Z,23.95
2019-04-06T15:57:29.913Z,24.16
2019-04-06T16:03:52.308Z,23.92
2019-04-06T16:10:04.650Z,23.12
2019-04-06T16:16:11.636Z,23.84
2019-04-06T16:22:34.546Z,25.24
2019-04-06T16:28:41.446Z,24.58
2019-04-06T16:34:50.303Z,25.27
2019-04-06T16:41:11.953Z,24.82
2019-04-06T16:47:20.581Z,26.23
2019-04-06T16:53:32.859Z,26.96
2019-04-06T16:59:54.303Z,28.85
2019-04-06T17:06:01.498Z,29.71
2019-04-06T17:12:24.742Z,31.18
2019-04-06T17:18:29.150Z,32.55
2019-04-06T17:24:38.757Z,33.50
2019-04-06T17:30:56.709Z,34.82
2019-04-06T17:37:05.754Z,35.26
2019-04-06T17:43:16.104Z,37.10
2019-04-06T17:49:24.190Z,40.57
2019-04-06T17:55:48.756Z,42.13
2019-04-06T18:02:04.278Z,46.04
2019-04-06T18:08:26.476Z,49.05
2019-04-06T18:14:31.439Z,51.99
2019-04-06T18:20:36.105Z,55.02
2019-04-06T18:26:40.662Z,56.92
2019-04-06T18:32:58.353Z,58.15
2019-04-06T18:38:57.704Z,60.14
2019-04-06T18:45:02.335Z,61.61
2019-04-06T18:51:06.924Z,62.38
2019-04-06T18:57:11.638Z,62.83
2019-04-06T19:03:16.855Z,64.17
2019-04-06T19:09:24.014Z,64.88
2019-04-06T19:15:28.472Z,65.81
2019-04-06T19:21:33.226Z,66.78
2019-04-06T19:27:37.931Z,67.52
2019-04-06T19:33:43.154Z,68.05
2019-04-06T19:39:47.978Z,69.34
2019-04-06T19:45:52.940Z,70.29
2019-04-06T19:51:57.845Z,70.23
2019-04-06T19:58:02.514Z,70.63
2019-04-06T20:04:07.089Z,70.95
2019-04-06T20:10:12.726Z,71.27
2019-04-06T20:16:17.513Z,71.10
2019-04-06T20:22:22.933Z,71.03
2019-04-06T20:28:27.764Z,70.42
2019-04-06T20:34:32.345Z,69.36
2019-04-06T20:40:36.908Z,68.52
2019-04-06T20:46:41.477Z,67.87
2019-04-06T20:52:46.115Z,66.92
2019-04-06T20:58:51.208Z,66.38
2019-04-06T21:04:56.184Z,64.98
2019-04-06T21:11:01.189Z,64.60
2019-04-06T21:17:06.891Z,64.19
2019-04-06T21:23:11.736Z,63.51
2019-04-06T21:29:16.830Z,62.30
2019-04-06T21:35:21.559Z,61.20
2019-04-06T21:41:27.760Z,60.95
2019-04-06T21:47:32.500Z,59.46
2019-04-06T21:53:37.040Z,58.54
2019-04-06T21:59:41.820Z,56.98
2019-04-06T22:05:46.625Z,56.55
2019-04-06T22:11:51.553Z,55.50
2019-04-06T22:17:56.677Z,54.97
2019-04-06T22:24:01.321Z,53.56
2019-04-06T22:30:09.791Z,55.05
2019-04-06T22:36:14.350Z,54.73
2019-04-06T22:42:19.328Z,54.86
2019-04-06T22:48:24.235Z,57.09
2019-04-06T22:54:28.867Z,58.10
2019-04-06T23:00:37.612Z,58.21
2019-04-06T23:06:43.805Z,58.63
2019-04-06T23:12:48.693Z,59.51
2019-04-06T23:18:53.747Z,61.67
2019-04-06T23:24:58.998Z,62.97
2019-04-06T23:31:04.008Z,63.67
2019-04-06T23:37:08.699Z,64.10
2019-04-06T23:43:13.327Z,64.52
2019-04-06T23:49:17.925Z,65.19
2019-04-06T23:55:22.490Z,65.87
